Terminal Aerodrome Forecast
Issued by NWS Twin Cities, MN

Home | Current Version | Previous Version | Text Only | Print | Product List | Glossary On
Versions: 1 2 3 4 5 6 7 8 9 10 11 12 13 14 15 16 17 18 19
000
FTUS43 KMPX 221400 AAA
TAFSTC
TAF AMD
KSTC 221404Z 2214/2312 16008KT 1SM BR SCT004
     FM221530 18007KT 2SM BR OVC003
     FM222200 17009KT 4SM BR OVC007
     FM230600 16007KT 2SM BR OVC003
      TEMPO 2308/2312 1/4SM FG VV001=

USA.gov is the U.S. government's official web portal to all federal, state and local government web resources and services.